Time;durP1;ratioP1;P1;durP2;ratioP2;P2;SDS_P1;SDS_P2;PMS_P1;PMS_P2;Temp;Humidity;BMP_temperature;BMP_pressure;BME280_temperature;BME280_humidity;BME280_pressure;Samples;Min_cycle;Max_cycle;Signal;HPM_P1;HPM_P2
2021/12/11 00:01:37;;;;;;;;;5.00;4.25;;;;;7.37;60.74;100604.41;5060730;28;45319;-50
2021/12/11 00:04:06;;;;;;;;;4.00;4.00;;;;;7.37;60.96;100609.63;5060644;28;46499;-50
2021/12/11 00:06:37;;;;;;;;;6.00;3.75;;;;;7.37;60.76;100600.06;5059270;28;45341;-50
2021/12/11 00:09:21;;;;;;;;;4.25;4.00;;;;;7.38;60.93;100607.00;5059391;28;45456;-50
2021/12/11 00:11:52;;;;;;;;;6.25;2.25;;;;;7.38;60.74;100611.38;5060419;28;45527;-51
2021/12/11 00:14:20;;;;;;;;;5.00;3.50;;;;;7.40;60.99;100607.88;5059057;28;46065;-49
2021/12/11 00:16:45;;;;;;;;;2.25;2.00;;;;;7.40;61.06;100610.50;5053119;28;45930;-47
2021/12/11 00:19:20;;;;;;;;;3.00;2.50;;;;;7.39;61.05;100616.59;5059083;28;45426;-52
2021/12/11 00:21:48;;;;;;;;;5.25;2.50;;;;;7.41;61.10;100625.31;5057043;28;45500;-53
2021/12/11 00:24:17;;;;;;;;;2.50;2.25;;;;;7.40;60.94;100626.19;5058526;28;45528;-52
2021/12/11 00:26:50;;;;;;;;;4.00;2.75;;;;;7.41;61.08;100630.53;5056480;28;45280;-47
2021/12/11 00:29:21;;;;;;;;;4.00;4.00;;;;;7.42;61.09;100639.25;5058900;28;45246;-51
2021/12/11 00:31:50;;;;;;;;;4.50;4.50;;;;;7.43;60.87;100636.66;5058013;28;45457;-49
2021/12/11 00:34:17;;;;;;;;;3.75;3.00;;;;;7.41;60.87;100632.25;5058771;28;45448;-49
2021/12/11 00:37:10;;;;;;;;;4.50;2.75;;;;;7.46;60.82;100647.09;5056560;28;45381;-50
2021/12/11 00:39:50;;;;;;;;;4.00;3.00;;;;;7.47;60.90;100650.56;5053247;28;45415;-51
2021/12/11 00:42:17;;;;;;;;;2.50;2.00;;;;;7.45;61.10;100657.56;5058621;28;45387;-47
2021/12/11 00:44:55;;;;;;;;;3.75;3.75;;;;;7.46;60.86;100652.31;5052244;28;47143;-51
2021/12/11 00:47:25;;;;;;;;;3.75;2.00;;;;;7.47;61.03;100663.63;5058376;28;45496;-51
2021/12/11 00:50:03;;;;;;;;;3.75;3.00;;;;;7.47;61.01;100674.97;5058715;28;45374;-53
2021/12/11 00:52:38;;;;;;;;;4.25;3.50;;;;;7.48;60.91;100681.94;5059448;28;45295;-51
2021/12/11 00:55:18;;;;;;;;;5.00;2.50;;;;;7.47;61.01;100680.22;5057514;28;45550;-50
2021/12/11 00:57:45;;;;;;;;;4.00;3.25;;;;;7.48;60.93;100694.13;5056952;28;45506;-53
2021/12/11 01:00:17;;;;;;;;;2.00;1.50;;;;;7.47;60.85;100690.66;5040670;28;45185;-51
2021/12/11 01:02:44;;;;;;;;;5.75;2.00;;;;;7.48;60.65;100696.75;5057685;28;45353;-53
2021/12/11 01:05:10;;;;;;;;;6.25;4.00;;;;;7.46;61.04;100702.00;5058466;28;45539;-51
2021/12/11 01:07:36;;;;;;;;;2.50;2.00;;;;;7.47;60.87;100705.47;5057253;28;46215;-49
2021/12/11 01:10:11;;;;;;;;;4.50;3.50;;;;;7.45;60.88;100708.09;5059098;28;45630;-50
2021/12/11 01:12:45;;;;;;;;;3.00;3.00;;;;;7.43;60.85;100716.81;5056852;28;45437;-52
2021/12/11 01:15:35;;;;;;;;;5.75;4.00;;;;;7.40;60.94;100709.84;5046661;28;46374;-49
2021/12/11 01:20:50;;;;;;;;;4.00;1.25;;;;;7.36;61.42;100722.91;5058294;28;45257;-52
2021/12/11 01:23:34;;;;;;;;;3.50;3.50;;;;;7.35;60.89;100729.91;5056965;28;45176;-51
2021/12/11 01:26:03;;;;;;;;;3.00;2.25;;;;;7.34;60.98;100736.00;5056771;28;45370;-48
2021/12/11 01:28:29;;;;;;;;;3.75;3.50;;;;;7.32;61.14;100737.75;5055615;28;45683;-51
2021/12/11 01:30:57;;;;;;;;;2.50;2.25;;;;;7.32;60.93;100749.06;5057960;28;45455;-49
2021/12/11 01:33:22;;;;;;;;;2.75;2.00;;;;;7.31;60.93;100747.31;5058143;28;45536;-51
2021/12/11 01:35:48;;;;;;;;;3.75;2.75;;;;;7.29;60.88;100756.91;5057801;28;46196;-48
2021/12/11 01:38:23;;;;;;;;;2.25;1.75;;;;;7.29;61.02;100750.81;5056765;28;45979;-50
2021/12/11 01:40:52;;;;;;;;;3.00;3.00;;;;;7.26;61.01;100761.28;5055231;28;45325;-49
2021/12/11 01:43:22;;;;;;;;;3.25;3.00;;;;;7.25;61.00;100764.75;5062974;28;45252;-50
2021/12/11 01:45:52;;;;;;;;;4.50;4.00;;;;;7.24;61.16;100765.63;5059151;28;45496;-47
2021/12/11 01:48:20;;;;;;;;;4.75;2.50;;;;;7.21;61.06;100774.34;5061505;28;45248;-49
2021/12/11 01:50:52;;;;;;;;;0.25;0.25;;;;;7.16;60.61;100774.34;5060169;28;45372;-52
2021/12/11 01:53:43;;;;;;;;;4.75;4.00;;;;;7.16;61.20;100782.19;5060215;28;45766;-49
2021/12/11 01:56:20;;;;;;;;;6.50;2.50;;;;;7.14;60.97;100790.88;5061025;28;46195;-48
2021/12/11 01:58:57;;;;;;;;;3.00;2.00;;;;;7.14;61.11;100785.66;5061345;28;46465;-51
2021/12/11 02:01:30;;;;;;;;;2.25;2.00;;;;;7.13;61.06;100779.56;5059874;28;45238;-47
2021/12/11 02:03:58;;;;;;;;;6.75;4.00;;;;;7.10;60.92;100771.72;5057479;28;45517;-46
2021/12/11 02:06:31;;;;;;;;;3.00;3.00;;;;;7.12;61.10;100785.66;5060827;28;46121;-48
2021/12/11 02:08:57;;;;;;;;;4.75;3.75;;;;;7.10;60.97;100790.00;5058497;28;45466;-52
2021/12/11 02:11:27;;;;;;;;;4.50;3.00;;;;;7.13;61.06;100794.38;5061148;28;45165;-47
2021/12/11 02:13:59;;;;;;;;;4.50;3.25;;;;;7.12;61.11;100797.88;5061142;28;45556;-52
2021/12/11 02:16:26;;;;;;;;;2.25;1.25;;;;;7.12;60.74;100801.34;5056796;28;47114;-49
2021/12/11 02:18:58;;;;;;;;;2.50;2.25;;;;;7.14;60.98;100809.19;5060983;28;45422;-50
2021/12/11 02:21:42;;;;;;;;;3.25;3.00;;;;;7.13;60.93;100816.16;5061175;28;45257;-50
2021/12/11 02:24:14;;;;;;;;;4.00;3.00;;;;;7.14;61.02;100817.91;5059869;28;45424;-52
2021/12/11 02:26:41;;;;;;;;;3.25;3.00;;;;;7.12;61.21;100814.41;5058958;28;47162;-51
2021/12/11 02:29:31;;;;;;;;;3.50;3.50;;;;;7.13;60.97;100821.41;5060771;28;46423;-48
2021/12/11 02:32:29;;;;;;;;;4.75;3.50;;;;;7.12;61.10;100830.09;5062427;28;45326;-50
2021/12/11 02:35:12;;;;;;;;;3.75;2.00;;;;;7.11;61.08;100822.25;5050424;28;45371;-52
2021/12/11 02:37:44;;;;;;;;;3.25;2.50;;;;;7.09;61.01;100824.84;5061997;28;46124;-52
2021/12/11 02:40:19;;;;;;;;;3.00;2.75;;;;;7.09;61.00;100831.84;5060787;28;45328;-52
2021/12/11 02:43:11;;;;;;;;;1.00;1.00;;;;;7.06;61.03;100830.09;5061824;28;45359;-50
2021/12/11 02:46:01;;;;;;;;;2.50;1.00;;;;;7.03;61.07;100835.31;5060434;28;45553;-52
2021/12/11 02:48:33;;;;;;;;;1.75;1.00;;;;;6.99;61.27;100828.31;5050810;28;45702;-48
2021/12/11 02:51:15;;;;;;;;;3.00;3.00;;;;;6.99;61.29;100841.38;5049127;28;45434;-52
2021/12/11 02:53:48;;;;;;;;;4.00;2.25;;;;;6.95;61.22;100845.72;5059721;28;45248;-52
2021/12/11 02:56:22;;;;;;;;;4.75;2.00;;;;;6.93;61.33;100855.31;5061874;28;45450;-49
2021/12/11 02:58:54;;;;;;;;;3.50;2.75;;;;;6.89;61.46;100852.69;5061774;28;46842;-50
2021/12/11 03:01:27;;;;;;;;;1.75;1.75;;;;;6.89;61.43;100858.78;5060782;28;45259;-50
2021/12/11 03:04:05;;;;;;;;;2.25;2.00;;;;;6.89;61.25;100863.13;5049200;28;45211;-48
2021/12/11 03:06:38;;;;;;;;;3.00;2.75;;;;;6.88;61.45;100869.22;5060321;28;45285;-47
2021/12/11 03:09:05;;;;;;;;;5.00;3.25;;;;;6.87;61.22;100875.31;5061213;28;46101;-48
2021/12/11 03:11:31;;;;;;;;;2.75;2.75;;;;;6.87;61.27;100880.53;5060211;28;45809;-52
2021/12/11 03:13:58;;;;;;;;;4.00;2.50;;;;;6.85;61.42;100877.06;5061999;28;45411;-50
2021/12/11 03:16:28;;;;;;;;;4.75;2.00;;;;;6.88;61.30;100874.44;5061613;28;45314;-50
2021/12/11 03:18:56;;;;;;;;;7.50;3.50;;;;;6.88;61.18;100880.56;5061649;28;45297;-48
2021/12/11 03:21:21;;;;;;;;;6.50;4.50;;;;;6.89;61.17;100886.66;5061208;28;45904;-46
2021/12/11 03:23:48;;;;;;;;;4.50;3.25;;;;;6.87;61.63;100902.34;5061334;28;45328;-49
2021/12/11 03:26:14;;;;;;;;;5.00;3.75;;;;;6.86;61.43;100905.81;5061439;28;45305;-52
2021/12/11 03:28:39;;;;;;;;;3.50;3.25;;;;;6.87;61.30;100911.88;5061505;28;46269;-50
2021/12/11 03:31:06;;;;;;;;;4.00;3.00;;;;;6.88;61.20;100919.75;5061085;28;45380;-49
2021/12/11 03:33:40;;;;;;;;;2.75;2.00;;;;;6.88;61.44;100926.69;5061800;28;45148;-52
2021/12/11 03:36:08;;;;;;;;;6.25;2.25;;;;;6.88;61.21;100926.69;5061124;28;45386;-52
2021/12/11 03:38:35;;;;;;;;;6.50;4.50;;;;;6.89;61.42;100928.44;5060903;28;46237;-52
2021/12/11 03:41:02;;;;;;;;;3.75;3.25;;;;;6.89;61.37;100931.06;5059236;28;45566;-50
2021/12/11 03:43:29;;;;;;;;;4.50;2.25;;;;;6.90;61.29;100932.81;5061356;28;45331;-49
2021/12/11 03:45:59;;;;;;;;;3.75;3.25;;;;;6.89;61.11;100937.16;5061100;28;45360;-51
2021/12/11 03:48:56;;;;;;;;;5.00;3.00;;;;;6.89;61.44;100936.28;5059702;28;45884;-47
2021/12/11 03:51:28;;;;;;;;;7.00;3.50;;;;;6.90;61.24;100938.91;5051089;28;45853;-47
2021/12/11 03:53:55;;;;;;;;;4.25;4.00;;;;;6.89;61.27;100950.22;5054892;28;45273;-51
2021/12/11 03:56:21;;;;;;;;;7.75;4.00;;;;;6.89;61.37;100957.19;5052456;28;45572;-50
2021/12/11 03:58:52;;;;;;;;;4.00;2.00;;;;;6.89;61.20;100960.66;5060610;28;45522;-48
2021/12/11 04:01:31;;;;;;;;;5.50;4.75;;;;;6.90;61.30;100964.16;5060845;28;45256;-52
2021/12/11 04:04:01;;;;;;;;;3.75;3.75;;;;;6.90;61.46;100969.41;5048545;28;45260;-49
2021/12/11 04:06:26;;;;;;;;;4.75;2.00;;;;;6.89;61.49;100968.50;5059572;28;45379;-51
2021/12/11 04:08:53;;;;;;;;;4.75;3.50;;;;;6.88;61.50;100960.66;5060476;28;45914;-48
2021/12/11 04:11:26;;;;;;;;;7.75;2.00;;;;;6.89;61.53;100963.28;5060693;28;45247;-50
2021/12/11 04:13:57;;;;;;;;;7.50;3.50;;;;;6.91;61.41;100965.91;5060918;28;45248;-51
2021/12/11 04:16:23;;;;;;;;;8.75;4.75;;;;;6.91;61.44;100966.78;5060494;28;45481;-49
2021/12/11 04:18:49;;;;;;;;;4.75;3.25;;;;;6.94;61.54;100971.16;5060626;28;45330;-52
2021/12/11 04:21:15;;;;;;;;;2.00;2.00;;;;;6.96;61.41;100979.88;5060387;28;45539;-52
2021/12/11 04:23:41;;;;;;;;;3.00;2.75;;;;;6.94;61.50;100972.03;5060456;28;45543;-49
2021/12/11 04:26:07;;;;;;;;;6.00;2.50;;;;;6.96;61.41;100978.13;5060432;28;45414;-51
2021/12/11 04:28:35;;;;;;;;;7.75;3.50;;;;;6.97;61.49;100981.63;5060449;28;45276;-49
2021/12/11 04:31:14;;;;;;;;;4.25;2.50;;;;;6.90;61.38;100967.63;5060289;28;45393;-51
2021/12/11 04:33:47;;;;;;;;;4.00;2.75;;;;;6.99;61.50;100983.38;5060635;28;45647;-51
2021/12/11 04:36:21;;;;;;;;;1.50;1.50;;;;;7.02;61.45;100990.34;5060227;28;45241;-49
2021/12/11 04:38:48;;;;;;;;;2.75;2.00;;;;;7.04;61.44;100992.97;5058857;28;45571;-51
2021/12/11 04:41:21;;;;;;;;;4.75;2.75;;;;;7.04;61.52;100988.59;5046864;28;45272;-52
2021/12/11 04:43:49;;;;;;;;;4.00;1.00;;;;;7.06;61.56;100996.47;5059160;28;45322;-50
2021/12/11 04:46:15;;;;;;;;;3.25;3.25;;;;;7.08;61.69;101007.78;5060248;28;45257;-50
2021/12/11 04:51:57;;;;;;;;;4.50;2.75;;;;;7.10;61.46;101011.28;5036835;28;45505;-53
2021/12/11 04:54:58;;;;;;;;;4.00;3.00;;;;;7.11;61.55;101013.91;5060153;28;45267;-51
2021/12/11 05:00:30;;;;;;;;;5.00;2.00;;;;;7.13;61.58;101026.97;5059992;28;45399;-51
2021/12/11 05:05:46;;;;;;;;;3.00;2.00;;;;;7.14;61.35;101020.88;5059893;28;45310;-49
2021/12/11 05:10:56;;;;;;;;;4.00;2.25;;;;;7.18;61.45;101024.41;5059402;28;45572;-50
2021/12/11 05:13:24;;;;;;;;;4.25;2.00;;;;;7.19;61.48;101018.31;5059664;28;45270;-48
2021/12/11 05:15:52;;;;;;;;;3.75;3.50;;;;;7.20;61.67;101014.81;5059953;28;45429;-51
2021/12/11 05:18:22;;;;;;;;;2.50;2.00;;;;;7.20;61.68;101020.06;5064607;28;45488;-50
2021/12/11 05:20:52;;;;;;;;;4.00;4.00;;;;;7.20;61.42;101010.47;5066332;28;45319;-53
2021/12/11 05:23:17;;;;;;;;;4.00;4.00;;;;;7.21;61.45;101013.94;5066534;28;45154;-50
2021/12/11 05:25:45;;;;;;;;;4.50;3.25;;;;;7.21;61.61;101027.91;5065754;28;45504;-50
2021/12/11 05:28:11;;;;;;;;;6.25;4.75;;;;;7.22;61.69;101034.88;5066724;28;45299;-52
2021/12/11 05:30:41;;;;;;;;;4.00;3.00;;;;;7.21;61.53;101037.47;5065996;28;45831;-52
2021/12/11 05:33:06;;;;;;;;;8.25;4.00;;;;;7.22;61.37;101042.72;5066461;28;45248;-48
2021/12/11 05:35:35;;;;;;;;;4.50;3.00;;;;;7.22;61.72;101042.72;5065200;28;45451;-50
2021/12/11 05:38:03;;;;;;;;;7.50;4.00;;;;;7.21;61.46;101047.91;5056771;28;45390;-49
2021/12/11 05:40:29;;;;;;;;;3.00;2.25;;;;;7.21;61.45;101059.25;5064413;28;45433;-52
2021/12/11 05:42:56;;;;;;;;;3.00;3.00;;;;;7.21;61.70;101063.59;5066479;28;45483;-47
2021/12/11 05:45:21;;;;;;;;;3.00;3.00;;;;;7.18;61.60;101067.06;5066195;28;45279;-49
2021/12/11 05:47:47;;;;;;;;;5.75;3.25;;;;;7.19;61.61;101076.66;5066197;28;45322;-50
2021/12/11 05:50:18;;;;;;;;;4.00;3.25;;;;;7.15;61.42;101069.69;5065996;28;45567;-52
2021/12/11 05:52:44;;;;;;;;;5.75;3.50;;;;;7.16;61.65;101087.13;5065226;28;45423;-52
2021/12/11 05:55:14;;;;;;;;;4.25;3.00;;;;;7.15;61.62;101088.84;5065747;28;45457;-48
2021/12/11 05:57:41;;;;;;;;;8.75;3.25;;;;;7.13;61.68;101093.22;5066202;28;45321;-50
2021/12/11 06:00:09;;;;;;;;;8.00;5.00;;;;;7.11;61.33;101102.78;5065824;28;46238;-48
2021/12/11 06:02:36;;;;;;;;;8.75;5.00;;;;;7.09;61.67;101109.72;5065804;28;45478;-47
2021/12/11 06:05:03;;;;;;;;;8.00;7.50;;;;;7.08;61.63;101115.84;5066046;28;45243;-51
2021/12/11 06:07:29;;;;;;;;;7.00;6.75;;;;;7.05;61.56;101121.03;5065847;28;45429;-48
2021/12/11 06:10:00;;;;;;;;;9.00;4.00;;;;;7.03;61.60;101124.50;5065431;28;45245;-51
2021/12/11 06:12:27;;;;;;;;;9.75;8.00;;;;;7.00;61.48;101127.97;5067153;28;45296;-46
2021/12/11 06:14:53;;;;;;;;;8.00;7.00;;;;;6.99;61.47;101136.66;5075906;28;45429;-49
2021/12/11 06:17:23;;;;;;;;;8.25;6.50;;;;;6.94;61.55;101139.25;5064180;28;45422;-50
2021/12/11 06:19:52;;;;;;;;;10.00;7.75;;;;;6.94;61.62;101138.38;5064604;28;45876;-50
2021/12/11 06:22:24;;;;;;;;;3.75;3.75;;;;;6.91;61.41;101138.38;5064895;28;45562;-46
2021/12/11 06:24:51;;;;;;;;;8.50;5.75;;;;;6.89;61.48;101143.56;5066828;28;45260;-47
2021/12/11 06:27:16;;;;;;;;;6.50;4.50;;;;;6.84;61.58;101142.66;5068644;28;45530;-44
2021/12/11 06:29:42;;;;;;;;;10.50;5.25;;;;;6.81;61.53;101148.72;5059815;28;46751;-48
2021/12/11 06:32:08;;;;;;;;;8.25;6.25;;;;;6.79;61.54;101160.91;5060798;28;45386;-48
2021/12/11 06:34:34;;;;;;;;;8.50;5.25;;;;;6.74;61.42;101165.25;5061595;28;45311;-48
2021/12/11 06:37:02;;;;;;;;;7.50;5.00;;;;;6.70;61.21;101163.44;5067059;28;45323;-47
2021/12/11 06:39:27;;;;;;;;;8.00;5.00;;;;;6.67;61.36;101166.03;5062638;28;46218;-48
2021/12/11 06:41:56;;;;;;;;;5.50;5.50;;;;;6.65;61.39;101170.38;5068605;27;45470;-48
2021/12/11 06:44:27;;;;;;;;;6.25;3.25;;;;;6.60;61.54;101165.13;5061077;28;45438;-45
2021/12/11 06:46:54;;;;;;;;;4.75;4.75;;;;;6.59;61.38;101181.63;5060971;28;45391;-49
2021/12/11 06:49:21;;;;;;;;;4.75;4.75;;;;;6.52;61.35;101179.81;5072160;28;46236;-45
2021/12/11 06:51:46;;;;;;;;;9.50;8.00;;;;;6.54;61.62;101190.28;5072638;28;45348;-46
2021/12/11 06:54:12;;;;;;;;;10.00;8.00;;;;;6.50;61.27;101190.25;5060328;28;45582;-46
2021/12/11 06:56:40;;;;;;;;;9.75;7.00;;;;;6.48;61.35;101201.56;5062175;28;45244;-45
2021/12/11 06:59:07;;;;;;;;;9.25;7.75;;;;;6.44;61.50;101205.88;5059393;28;45317;-47
2021/12/11 07:01:36;;;;;;;;;58.00;45.00;;;;;6.43;61.41;101206.72;5062146;28;45497;-49
2021/12/11 07:04:06;;;;;;;;;18.50;13.50;;;;;6.38;61.47;101213.63;5044386;28;45307;-50
2021/12/11 07:06:36;;;;;;;;;9.00;8.75;;;;;6.36;61.40;101222.31;5060314;28;45540;-51
2021/12/11 07:09:04;;;;;;;;;9.75;8.00;;;;;6.32;61.56;101222.25;5061369;28;45280;-50
2021/12/11 07:11:31;;;;;;;;;7.50;7.00;;;;;6.30;61.56;101226.59;5061624;28;45247;-52
2021/12/11 07:13:57;;;;;;;;;14.00;8.50;;;;;6.26;61.48;101226.53;5062088;28;45418;-48
2021/12/11 07:16:22;;;;;;;;;9.00;8.25;;;;;6.22;61.27;101225.63;5060381;28;45427;-49
2021/12/11 07:18:50;;;;;;;;;8.25;7.00;;;;;6.21;61.25;101233.44;5061640;28;46170;-49
2021/12/11 07:21:15;;;;;;;;;10.00;9.25;;;;;6.21;61.55;101244.75;5061314;28;45434;-47
2021/12/11 07:23:45;;;;;;;;;9.25;9.25;;;;;6.20;61.50;101255.19;5061589;28;45351;-51
2021/12/11 07:26:16;;;;;;;;;7.25;7.00;;;;;6.17;61.32;101256.03;5061526;28;45485;-49
2021/12/11 07:28:45;;;;;;;;;11.50;8.00;;;;;6.15;61.32;101268.16;5061163;28;46561;-46
2021/12/11 07:31:10;;;;;;;;;11.00;8.00;;;;;6.11;61.49;101267.28;5061404;28;45283;-51
2021/12/11 07:33:37;;;;;;;;;8.25;7.75;;;;;6.11;61.31;101271.59;5060103;28;45487;-48
2021/12/11 07:36:04;;;;;;;;;12.50;10.00;;;;;6.08;61.35;101269.84;5061276;28;45405;-49
2021/12/11 07:38:29;;;;;;;;;13.75;8.75;;;;;6.07;61.33;101272.44;5060795;28;46387;-49
2021/12/11 07:40:58;;;;;;;;;7.75;7.00;;;;;6.05;61.38;101263.69;5059276;28;45453;-49
2021/12/11 07:43:25;;;;;;;;;13.25;8.25;;;;;6.04;61.34;101277.59;5040129;28;45295;-48
2021/12/11 07:45:52;;;;;;;;;8.75;7.25;;;;;6.01;61.53;101278.44;5059169;28;45500;-48
2021/12/11 07:48:18;;;;;;;;;11.00;8.25;;;;;6.00;61.64;101288.00;5061022;28;45312;-52
2021/12/11 07:50:45;;;;;;;;;13.25;9.75;;;;;5.99;61.65;101293.22;5061142;28;45396;-50
2021/12/11 07:53:11;;;;;;;;;13.25;11.25;;;;;5.96;61.49;101287.91;5061133;28;45369;-52
2021/12/11 07:55:37;;;;;;;;;9.00;8.00;;;;;5.96;61.66;101299.22;5066251;28;45326;-51
2021/12/11 07:58:05;;;;;;;;;15.50;10.75;;;;;5.93;61.53;101293.94;5068944;27;46211;-49
2021/12/11 08:00:33;;;;;;;;;7.50;6.25;;;;;5.96;61.60;101316.59;5060928;28;45245;-52
2021/12/11 08:02:59;;;;;;;;;15.75;13.25;;;;;5.92;61.43;101312.19;5060762;28;45545;-49
2021/12/11 08:05:27;;;;;;;;;13.75;13.25;;;;;5.95;61.55;101314.84;5054226;28;45255;-47
2021/12/11 08:07:52;;;;;;;;;10.00;9.00;;;;;5.95;61.61;101314.84;5054090;28;45262;-45
2021/12/11 08:10:21;;;;;;;;;10.50;8.25;;;;;5.96;61.51;101322.72;5059016;28;45213;-47
2021/12/11 08:12:48;;;;;;;;;16.00;13.00;;;;;6.11;67.24;101322.06;5060714;28;45394;-45
2021/12/11 08:15:15;;;;;;;;;9.50;7.50;;;;;6.11;66.00;101310.75;5060811;28;45334;-45
2021/12/11 08:17:40;;;;;;;;;12.50;9.50;;;;;6.08;64.91;101327.25;5059036;28;46279;-50
2021/12/11 08:20:08;;;;;;;;;13.00;12.00;;;;;6.08;64.16;101337.69;5060705;28;45351;-46
2021/12/11 08:22:34;;;;;;;;;9.75;9.75;;;;;6.08;63.81;101344.66;5060620;28;45254;-46
2021/12/11 08:24:59;;;;;;;;;15.25;8.25;;;;;6.05;63.75;101345.47;5060243;28;45265;-45
2021/12/11 08:27:26;;;;;;;;;17.75;13.50;;;;;6.08;63.48;101362.91;5072751;28;46177;-46
2021/12/11 08:29:53;;;;;;;;;9.75;7.75;;;;;6.06;63.37;101357.63;5060600;28;45382;-47
2021/12/11 08:32:20;;;;;;;;;9.75;9.00;;;;;6.08;63.08;101369.00;5060447;28;45409;-46
2021/12/11 08:34:47;;;;;;;;;10.00;9.75;;;;;6.09;63.02;101365.53;5047331;28;45328;-47
2021/12/11 08:37:16;;;;;;;;;9.75;9.75;;;;;6.09;63.17;101367.25;5060200;28;46238;-44
2021/12/11 08:39:43;;;;;;;;;7.25;6.50;;;;;6.06;63.09;101370.69;5057988;28;45336;-46
2021/12/11 08:42:13;;;;;;;;;12.50;10.50;;;;;6.09;62.88;101370.75;5060522;28;45410;-43
2021/12/11 08:44:48;;;;;;;;;11.25;11.25;;;;;6.10;62.82;101372.50;5059063;28;45478;-46
2021/12/11 08:47:14;;;;;;;;;18.25;16.50;;;;;6.15;62.92;101370.84;5059649;28;46225;-45
2021/12/11 08:49:41;;;;;;;;;15.50;12.50;;;;;6.17;62.97;101374.31;5060086;28;45438;-47
2021/12/11 08:52:17;;;;;;;;;19.00;13.75;;;;;6.22;62.84;101376.16;5059720;28;45440;-46
2021/12/11 08:54:42;;;;;;;;;17.00;13.50;;;;;6.26;62.82;101359.66;5059741;28;45328;-45
2021/12/11 08:57:13;;;;;;;;;22.25;15.75;;;;;6.29;62.67;101372.75;5059834;28;46053;-48
2021/12/11 08:59:43;;;;;;;;;15.00;13.00;;;;;6.36;62.86;101379.81;5059843;28;45329;-46
2021/12/11 09:02:40;;;;;;;;;13.25;10.50;;;;;6.41;62.90;101387.72;5073375;28;45388;-48
2021/12/11 09:05:09;;;;;;;;;12.75;10.25;;;;;6.49;62.87;101386.06;5030637;28;45379;-51
2021/12/11 09:07:40;;;;;;;;;16.25;16.25;;;;;6.54;62.80;101397.47;5058318;28;47261;-48
2021/12/11 09:10:12;;;;;;;;;15.50;15.25;;;;;6.62;62.94;101408.88;5059123;28;45336;-45
2021/12/11 09:12:46;;;;;;;;;17.50;16.75;;;;;6.68;62.80;101402.88;5059795;28;45439;-48
2021/12/11 09:15:40;;;;;;;;;15.25;11.25;;;;;6.77;62.88;101402.09;5058626;28;45433;-43
2021/12/11 09:18:09;;;;;;;;;20.75;18.75;;;;;6.79;62.96;101390.81;5059566;28;45384;-47
2021/12/11 09:20:40;;;;;;;;;18.25;15.50;;;;;6.99;62.92;101411.06;5058258;28;45332;-46
2021/12/11 09:23:17;;;;;;;;;19.50;15.50;;;;;7.06;63.13;101409.41;5059608;28;45299;-45
2021/12/11 09:26:08;;;;;;;;;16.25;15.00;;;;;7.18;62.90;101411.25;5059375;28;45371;-45
2021/12/11 09:28:48;;;;;;;;;16.25;12.50;;;;;7.31;63.09;101415.78;5059330;28;45993;-45
2021/12/11 09:31:25;;;;;;;;;17.00;13.50;;;;;7.40;63.23;101426.31;5059308;28;45424;-47
2021/12/11 09:33:57;;;;;;;;;13.50;13.50;;;;;7.49;63.12;101438.59;5058346;28;45328;-47
2021/12/11 09:36:30;;;;;;;;;16.00;12.00;;;;;7.60;63.28;101436.09;5078271;27;45721;-46
2021/12/11 09:39:05;;;;;;;;;16.75;12.50;;;;;7.74;63.37;101447.53;5057604;28;45395;-45
2021/12/11 09:41:30;;;;;;;;;14.75;11.00;;;;;7.87;63.41;101458.13;5059442;28;45289;-45
2021/12/11 09:44:09;;;;;;;;;13.75;11.25;;;;;7.98;63.38;101454.72;5059331;28;45157;-45
2021/12/11 09:46:46;;;;;;;;;12.75;11.75;;;;;8.10;63.27;101461.81;5059413;28;45341;-48
2021/12/11 09:49:18;;;;;;;;;13.00;12.00;;;;;8.21;63.42;101461.00;5058973;28;46251;-48
2021/12/11 09:51:46;;;;;;;;;16.75;14.00;;;;;8.29;63.41;101464.56;5059030;28;45323;-45
2021/12/11 09:54:18;;;;;;;;;15.50;11.00;;;;;8.39;63.30;101462.84;5059806;28;45524;-45
2021/12/11 09:56:48;;;;;;;;;14.75;12.00;;;;;8.44;63.35;101463.78;5058498;28;45399;-45
2021/12/11 09:59:17;;;;;;;;;15.75;10.50;;;;;8.52;63.15;101474.34;5058034;28;45493;-48
2021/12/11 10:01:46;;;;;;;;;13.25;12.00;;;;;8.56;63.41;101484.81;5058121;28;45514;-44
2021/12/11 10:04:31;;;;;;;;;19.00;13.50;;;;;8.60;63.10;101483.09;5061947;28;45565;-46
2021/12/11 10:09:47;;;;;;;;;17.75;13.50;;;;;8.68;62.97;101478.81;5062581;28;45794;-46
2021/12/11 10:12:20;;;;;;;;;12.75;10.75;;;;;8.75;63.22;101487.56;5065480;28;45273;-45
2021/12/11 10:14:53;;;;;;;;;15.75;10.00;;;;;8.79;62.97;101491.94;5063369;28;45969;-47
2021/12/11 10:17:30;;;;;;;;;13.50;12.25;;;;;8.85;62.86;101497.22;5081751;27;45383;-48
2021/12/11 10:19:59;;;;;;;;;14.75;11.25;;;;;8.91;62.75;101507.72;5061350;27;46164;-47
2021/12/11 10:22:36;;;;;;;;;14.00;10.50;;;;;8.93;62.57;101505.13;5063311;28;45527;-48
2021/12/11 10:25:07;;;;;;;;;10.00;7.75;;;;;9.01;63.01;101494.69;5060631;28;45657;-46
2021/12/11 10:27:33;;;;;;;;;10.75;7.00;;;;;9.05;62.97;101496.44;5074729;28;45452;-48
2021/12/11 10:30:00;;;;;;;;;14.50;11.25;;;;;9.09;62.62;101482.47;5060285;28;45540;-46
2021/12/11 10:32:30;;;;;;;;;7.25;7.25;;;;;9.13;63.02;101491.22;5061985;28;45328;-46
2021/12/11 10:35:00;;;;;;;;;6.75;6.50;;;;;9.15;62.92;101482.50;5062501;28;45213;-44
2021/12/11 10:37:33;;;;;;;;;1.75;1.75;;;;;9.21;62.92;101481.66;5061994;28;45318;-44
2021/12/11 10:40:04;;;;;;;;;9.50;6.50;;;;;9.24;62.92;101484.28;5060558;28;46394;-47
2021/12/11 10:42:30;;;;;;;;;12.00;8.00;;;;;9.26;62.65;101490.41;5065936;28;45250;-49
2021/12/11 10:44:58;;;;;;;;;10.25;7.75;;;;;9.20;62.53;101486.00;5082405;27;45303;-46
2021/12/11 10:47:31;;;;;;;;;13.00;10.25;;;;;9.27;62.66;101495.66;5062638;28;45785;-46
2021/12/11 10:49:56;;;;;;;;;11.75;10.75;;;;;9.30;62.50;101501.78;5061985;28;45397;-50
2021/12/11 10:52:27;;;;;;;;;9.25;6.50;;;;;9.32;62.70;101500.94;5061848;28;45374;-46
2021/12/11 10:54:55;;;;;;;;;11.50;7.50;;;;;9.32;62.43;101510.53;5061787;28;45405;-48
2021/12/11 10:57:23;;;;;;;;;10.25;6.75;;;;;9.33;62.58;101512.28;5048796;28;45590;-45
2021/12/11 10:59:52;;;;;;;;;10.00;9.50;;;;;9.33;62.61;101515.75;5061560;28;47482;-46
2021/12/11 11:02:26;;;;;;;;;11.25;10.00;;;;;9.38;62.35;101505.31;5061685;28;45181;-45
2021/12/11 11:04:57;;;;;;;;;11.25;10.25;;;;;9.47;62.27;101507.06;5061364;28;45246;-45
2021/12/11 11:07:26;;;;;;;;;13.00;11.00;;;;;9.52;62.33;101507.97;5061625;28;45381;-46
2021/12/11 11:09:54;;;;;;;;;8.00;5.75;;;;;9.58;62.22;101514.13;5060925;28;46244;-47
2021/12/11 11:12:23;;;;;;;;;11.75;11.50;;;;;9.71;62.16;101522.88;5061794;28;45413;-47
2021/12/11 11:14:52;;;;;;;;;13.50;9.00;;;;;9.81;62.27;101509.75;5061045;28;45411;-45
2021/12/11 11:17:21;;;;;;;;;14.50;10.75;;;;;9.89;62.14;101510.66;5061551;28;45203;-46
2021/12/11 11:19:48;;;;;;;;;10.25;9.75;;;;;9.97;62.28;101508.91;5061257;28;45392;-45
2021/12/11 11:22:24;;;;;;;;;12.00;7.00;;;;;10.04;62.08;101505.41;5061374;28;45417;-46
2021/12/11 11:25:14;;;;;;;;;18.00;13.50;;;;;10.09;62.11;101500.16;5046938;28;45391;-47
2021/12/11 11:27:42;;;;;;;;;14.50;12.00;;;;;10.11;62.08;101493.13;5061179;28;45493;-47
2021/12/11 11:30:12;;;;;;;;;16.50;14.75;;;;;10.15;62.03;101494.91;5061408;28;46180;-46
2021/12/11 11:32:38;;;;;;;;;14.00;12.00;;;;;10.21;62.30;101505.41;5063433;28;45272;-46
2021/12/11 11:35:14;;;;;;;;;12.50;10.75;;;;;10.23;62.19;101508.03;5060169;28;45316;-46
2021/12/11 11:37:41;;;;;;;;;14.00;11.25;;;;;10.24;62.14;101505.41;5061179;28;45381;-47
2021/12/11 11:40:11;;;;;;;;;17.50;14.00;;;;;10.24;62.27;101499.28;5056923;28;47089;-49
2021/12/11 11:42:38;;;;;;;;;14.00;13.25;;;;;10.21;62.08;101501.91;5043945;28;45419;-52
2021/12/11 11:45:07;;;;;;;;;14.75;11.25;;;;;10.21;62.02;101505.41;5063034;28;45223;-50
2021/12/11 11:47:33;;;;;;;;;17.25;13.75;;;;;10.19;61.87;101501.91;5059383;28;45410;-47
2021/12/11 11:49:59;;;;;;;;;17.50;14.75;;;;;10.19;62.36;101508.94;5055637;28;45403;-47
2021/12/11 11:52:27;;;;;;;;;13.75;11.50;;;;;10.15;61.93;101510.69;5060757;28;45380;-48
2021/12/11 11:55:08;;;;;;;;;11.75;11.25;;;;;10.14;61.73;101514.16;5060750;28;45323;-49
2021/12/11 11:57:39;;;;;;;;;13.25;13.00;;;;;10.11;61.86;101516.78;5056136;28;45458;-48
2021/12/11 12:00:43;;;;;;;;;16.00;12.00;;;;;10.09;61.71;101515.91;5056851;28;45422;-47